sensor_id;sensor_type;location;lat;lon;timestamp;P1;durP1;ratioP1;P2;durP2;ratioP2
7621;SDS011;3852;52.284;8.032;2022-11-15T00:00:50;15.17;;;11.23;;
7621;SDS011;3852;52.284;8.032;2022-11-15T00:03:18;13.63;;;11.20;;
7621;SDS011;3852;52.284;8.032;2022-11-15T00:05:46;14.23;;;10.73;;
7621;SDS011;3852;52.284;8.032;2022-11-15T00:08:13;14.43;;;11.10;;
7621;SDS011;3852;52.284;8.032;2022-11-15T00:10:38;13.70;;;10.73;;
7621;SDS011;3852;52.284;8.032;2022-11-15T00:13:13;13.57;;;10.80;;
7621;SDS011;3852;52.284;8.032;2022-11-15T00:15:40;11.27;;;9.93;;
7621;SDS011;3852;52.284;8.032;2022-11-15T00:18:09;12.93;;;10.50;;
7621;SDS011;3852;52.284;8.032;2022-11-15T00:20:38;12.10;;;9.83;;
7621;SDS011;3852;52.284;8.032;2022-11-15T00:23:04;12.50;;;9.53;;
7621;SDS011;3852;52.284;8.032;2022-11-15T00:25:30;12.13;;;9.97;;
7621;SDS011;3852;52.284;8.032;2022-11-15T00:27:57;10.87;;;9.50;;
7621;SDS011;3852;52.284;8.032;2022-11-15T00:30:24;13.47;;;10.20;;
7621;SDS011;3852;52.284;8.032;2022-11-15T00:32:50;13.60;;;9.90;;
7621;SDS011;3852;52.284;8.032;2022-11-15T00:35:16;13.83;;;10.10;;
7621;SDS011;3852;52.284;8.032;2022-11-15T00:37:42;14.10;;;9.97;;
7621;SDS011;3852;52.284;8.032;2022-11-15T00:40:09;12.37;;;9.87;;
7621;SDS011;3852;52.284;8.032;2022-11-15T00:42:35;13.23;;;10.57;;
7621;SDS011;3852;52.284;8.032;2022-11-15T00:45:01;15.57;;;10.73;;
7621;SDS011;3852;52.284;8.032;2022-11-15T00:47:27;14.33;;;10.27;;
7621;SDS011;3852;52.284;8.032;2022-11-15T00:49:53;13.70;;;9.80;;
7621;SDS011;3852;52.284;8.032;2022-11-15T00:52:19;13.97;;;10.40;;
7621;SDS011;3852;52.284;8.032;2022-11-15T00:54:45;14.30;;;10.53;;
7621;SDS011;3852;52.284;8.032;2022-11-15T00:57:11;15.03;;;10.53;;
7621;SDS011;3852;52.284;8.032;2022-11-15T00:59:39;16.83;;;10.43;;
7621;SDS011;3852;52.284;8.032;2022-11-15T01:02:05;12.87;;;9.80;;
7621;SDS011;3852;52.284;8.032;2022-11-15T01:04:31;13.23;;;9.90;;
7621;SDS011;3852;52.284;8.032;2022-11-15T01:06:57;17.17;;;10.80;;
7621;SDS011;3852;52.284;8.032;2022-11-15T01:09:23;17.50;;;10.87;;
7621;SDS011;3852;52.284;8.032;2022-11-15T01:11:49;14.50;;;10.17;;
7621;SDS011;3852;52.284;8.032;2022-11-15T01:14:14;14.87;;;10.23;;
7621;SDS011;3852;52.284;8.032;2022-11-15T01:16:40;13.03;;;9.90;;
7621;SDS011;3852;52.284;8.032;2022-11-15T01:19:06;13.87;;;10.30;;
7621;SDS011;3852;52.284;8.032;2022-11-15T01:21:32;16.30;;;10.20;;
7621;SDS011;3852;52.284;8.032;2022-11-15T01:24:00;12.70;;;10.03;;
7621;SDS011;3852;52.284;8.032;2022-11-15T01:26:26;11.70;;;9.10;;
7621;SDS011;3852;52.284;8.032;2022-11-15T01:28:52;11.77;;;9.60;;
7621;SDS011;3852;52.284;8.032;2022-11-15T01:31:18;12.37;;;9.10;;
7621;SDS011;3852;52.284;8.032;2022-11-15T01:33:46;12.30;;;9.30;;
7621;SDS011;3852;52.284;8.032;2022-11-15T01:36:14;10.40;;;8.33;;
7621;SDS011;3852;52.284;8.032;2022-11-15T01:38:43;11.03;;;8.63;;
7621;SDS011;3852;52.284;8.032;2022-11-15T01:41:16;10.00;;;8.33;;
7621;SDS011;3852;52.284;8.032;2022-11-15T01:43:51;10.40;;;8.30;;
7621;SDS011;3852;52.284;8.032;2022-11-15T01:46:35;10.00;;;7.63;;
7621;SDS011;3852;52.284;8.032;2022-11-15T01:49:10;10.67;;;8.50;;
7621;SDS011;3852;52.284;8.032;2022-11-15T01:51:40;10.07;;;7.80;;
7621;SDS011;3852;52.284;8.032;2022-11-15T01:54:08;10.43;;;7.63;;
7621;SDS011;3852;52.284;8.032;2022-11-15T01:56:44;9.17;;;7.67;;
7621;SDS011;3852;52.284;8.032;2022-11-15T01:59:34;8.53;;;7.37;;
7621;SDS011;3852;52.284;8.032;2022-11-15T02:02:02;10.60;;;8.47;;
7621;SDS011;3852;52.284;8.032;2022-11-15T02:04:29;9.27;;;7.90;;
7621;SDS011;3852;52.284;8.032;2022-11-15T02:07:03;7.93;;;7.13;;
7621;SDS011;3852;52.284;8.032;2022-11-15T02:09:30;10.93;;;7.90;;
7621;SDS011;3852;52.284;8.032;2022-11-15T02:11:56;10.37;;;8.03;;
7621;SDS011;3852;52.284;8.032;2022-11-15T02:14:22;8.57;;;7.40;;
7621;SDS011;3852;52.284;8.032;2022-11-15T02:16:58;8.20;;;6.97;;
7621;SDS011;3852;52.284;8.032;2022-11-15T02:25:53;10.90;;;8.80;;
7621;SDS011;3852;52.284;8.032;2022-11-15T02:29:03;12.83;;;7.97;;
7621;SDS011;3852;52.284;8.032;2022-11-15T02:40:17;8.70;;;7.53;;
7621;SDS011;3852;52.284;8.032;2022-11-15T02:43:16;8.57;;;7.70;;
7621;SDS011;3852;52.284;8.032;2022-11-15T02:46:19;9.20;;;7.73;;
7621;SDS011;3852;52.284;8.032;2022-11-15T02:49:46;8.27;;;7.37;;
7621;SDS011;3852;52.284;8.032;2022-11-15T02:52:16;8.03;;;7.23;;
7621;SDS011;3852;52.284;8.032;2022-11-15T02:58:15;9.63;;;7.07;;
7621;SDS011;3852;52.284;8.032;2022-11-15T03:01:12;11.57;;;7.60;;
7621;SDS011;3852;52.284;8.032;2022-11-15T03:07:26;8.83;;;7.83;;
7621;SDS011;3852;52.284;8.032;2022-11-15T03:10:10;9.40;;;7.50;;
7621;SDS011;3852;52.284;8.032;2022-11-15T03:13:19;9.27;;;7.93;;
7621;SDS011;3852;52.284;8.032;2022-11-15T03:18:45;11.67;;;7.27;;
7621;SDS011;3852;52.284;8.032;2022-11-15T03:21:19;9.53;;;8.30;;
7621;SDS011;3852;52.284;8.032;2022-11-15T03:23:48;8.93;;;7.27;;
7621;SDS011;3852;52.284;8.032;2022-11-15T03:26:15;11.40;;;8.07;;
7621;SDS011;3852;52.284;8.032;2022-11-15T03:31:22;11.90;;;8.00;;
7621;SDS011;3852;52.284;8.032;2022-11-15T03:34:13;10.00;;;7.70;;
7621;SDS011;3852;52.284;8.032;2022-11-15T03:36:55;9.40;;;8.37;;
7621;SDS011;3852;52.284;8.032;2022-11-15T03:39:21;9.43;;;8.43;;
7621;SDS011;3852;52.284;8.032;2022-11-15T03:41:49;9.23;;;8.23;;
7621;SDS011;3852;52.284;8.032;2022-11-15T03:44:48;9.53;;;7.40;;
7621;SDS011;3852;52.284;8.032;2022-11-15T03:47:34;9.40;;;7.43;;
7621;SDS011;3852;52.284;8.032;2022-11-15T03:50:07;9.77;;;7.60;;
7621;SDS011;3852;52.284;8.032;2022-11-15T03:52:38;7.87;;;7.03;;
7621;SDS011;3852;52.284;8.032;2022-11-15T03:55:07;10.13;;;7.47;;
7621;SDS011;3852;52.284;8.032;2022-11-15T03:57:38;8.40;;;7.27;;
7621;SDS011;3852;52.284;8.032;2022-11-15T04:00:04;9.57;;;7.70;;
7621;SDS011;3852;52.284;8.032;2022-11-15T04:02:31;9.20;;;7.30;;
7621;SDS011;3852;52.284;8.032;2022-11-15T04:04:56;9.50;;;7.77;;
7621;SDS011;3852;52.284;8.032;2022-11-15T04:07:22;13.17;;;8.17;;
7621;SDS011;3852;52.284;8.032;2022-11-15T04:09:48;8.97;;;7.13;;
7621;SDS011;3852;52.284;8.032;2022-11-15T04:12:32;9.90;;;7.20;;
7621;SDS011;3852;52.284;8.032;2022-11-15T04:17:37;9.37;;;7.90;;
7621;SDS011;3852;52.284;8.032;2022-11-15T04:20:13;9.70;;;6.87;;
7621;SDS011;3852;52.284;8.032;2022-11-15T04:23:08;9.73;;;7.70;;
7621;SDS011;3852;52.284;8.032;2022-11-15T04:26:02;10.80;;;7.80;;
7621;SDS011;3852;52.284;8.032;2022-11-15T04:28:35;9.37;;;7.90;;
7621;SDS011;3852;52.284;8.032;2022-11-15T04:31:22;9.13;;;8.00;;
7621;SDS011;3852;52.284;8.032;2022-11-15T04:33:47;7.93;;;7.13;;
7621;SDS011;3852;52.284;8.032;2022-11-15T04:36:13;10.47;;;8.03;;
7621;SDS011;3852;52.284;8.032;2022-11-15T04:38:58;9.37;;;7.60;;
7621;SDS011;3852;52.284;8.032;2022-11-15T04:41:24;10.17;;;7.33;;
7621;SDS011;3852;52.284;8.032;2022-11-15T04:43:49;9.93;;;7.30;;
7621;SDS011;3852;52.284;8.032;2022-11-15T04:46:15;9.80;;;8.07;;
7621;SDS011;3852;52.284;8.032;2022-11-15T04:48:41;11.33;;;7.30;;
7621;SDS011;3852;52.284;8.032;2022-11-15T04:51:07;9.67;;;8.13;;
7621;SDS011;3852;52.284;8.032;2022-11-15T04:53:33;9.90;;;7.63;;
7621;SDS011;3852;52.284;8.032;2022-11-15T04:55:58;9.57;;;8.20;;
7621;SDS011;3852;52.284;8.032;2022-11-15T04:58:24;9.43;;;7.80;;
7621;SDS011;3852;52.284;8.032;2022-11-15T05:00:50;8.93;;;7.70;;
7621;SDS011;3852;52.284;8.032;2022-11-15T05:03:16;11.70;;;7.43;;
7621;SDS011;3852;52.284;8.032;2022-11-15T05:06:00;8.57;;;7.60;;
7621;SDS011;3852;52.284;8.032;2022-11-15T05:08:26;8.60;;;6.93;;
7621;SDS011;3852;52.284;8.032;2022-11-15T05:10:52;8.70;;;7.77;;
7621;SDS011;3852;52.284;8.032;2022-11-15T05:13:18;10.47;;;8.13;;
7621;SDS011;3852;52.284;8.032;2022-11-15T05:15:44;10.37;;;7.63;;
7621;SDS011;3852;52.284;8.032;2022-11-15T05:18:10;11.00;;;7.50;;
7621;SDS011;3852;52.284;8.032;2022-11-15T05:20:36;9.30;;;7.30;;
7621;SDS011;3852;52.284;8.032;2022-11-15T05:23:02;8.43;;;7.53;;
7621;SDS011;3852;52.284;8.032;2022-11-15T05:25:31;9.10;;;7.13;;
7621;SDS011;3852;52.284;8.032;2022-11-15T05:27:57;10.77;;;7.90;;
7621;SDS011;3852;52.284;8.032;2022-11-15T05:30:23;9.33;;;8.33;;
7621;SDS011;3852;52.284;8.032;2022-11-15T05:32:48;9.27;;;8.10;;
7621;SDS011;3852;52.284;8.032;2022-11-15T05:35:18;7.93;;;6.70;;
7621;SDS011;3852;52.284;8.032;2022-11-15T05:37:55;9.73;;;7.80;;
7621;SDS011;3852;52.284;8.032;2022-11-15T05:40:21;9.43;;;7.30;;
7621;SDS011;3852;52.284;8.032;2022-11-15T05:42:48;8.70;;;7.37;;
7621;SDS011;3852;52.284;8.032;2022-11-15T05:45:14;8.47;;;7.57;;
7621;SDS011;3852;52.284;8.032;2022-11-15T05:47:41;9.40;;;7.67;;
7621;SDS011;3852;52.284;8.032;2022-11-15T05:50:07;10.37;;;8.30;;
7621;SDS011;3852;52.284;8.032;2022-11-15T05:52:37;7.83;;;6.93;;
7621;SDS011;3852;52.284;8.032;2022-11-15T05:55:03;9.90;;;7.80;;
7621;SDS011;3852;52.284;8.032;2022-11-15T05:57:31;8.63;;;7.17;;
7621;SDS011;3852;52.284;8.032;2022-11-15T05:59:57;10.73;;;7.37;;
7621;SDS011;3852;52.284;8.032;2022-11-15T06:02:23;9.13;;;7.83;;
7621;SDS011;3852;52.284;8.032;2022-11-15T06:04:49;9.70;;;8.57;;
7621;SDS011;3852;52.284;8.032;2022-11-15T06:07:15;11.67;;;8.00;;
7621;SDS011;3852;52.284;8.032;2022-11-15T06:09:41;11.97;;;9.27;;
7621;SDS011;3852;52.284;8.032;2022-11-15T06:12:06;9.63;;;8.00;;
7621;SDS011;3852;52.284;8.032;2022-11-15T06:14:32;11.13;;;8.00;;
7621;SDS011;3852;52.284;8.032;2022-11-15T06:16:58;10.70;;;8.47;;
7621;SDS011;3852;52.284;8.032;2022-11-15T06:19:24;15.57;;;10.17;;
7621;SDS011;3852;52.284;8.032;2022-11-15T06:21:49;10.07;;;7.23;;
7621;SDS011;3852;52.284;8.032;2022-11-15T06:24:15;9.83;;;7.70;;
7621;SDS011;3852;52.284;8.032;2022-11-15T06:26:41;10.27;;;8.03;;
7621;SDS011;3852;52.284;8.032;2022-11-15T06:29:07;11.20;;;8.27;;
7621;SDS011;3852;52.284;8.032;2022-11-15T06:31:33;9.43;;;8.00;;
7621;SDS011;3852;52.284;8.032;2022-11-15T06:33:59;9.60;;;8.07;;
7621;SDS011;3852;52.284;8.032;2022-11-15T06:36:25;10.37;;;7.60;;
7621;SDS011;3852;52.284;8.032;2022-11-15T06:38:51;11.23;;;8.20;;
7621;SDS011;3852;52.284;8.032;2022-11-15T06:41:17;10.20;;;7.90;;
7621;SDS011;3852;52.284;8.032;2022-11-15T06:43:43;10.37;;;7.37;;
7621;SDS011;3852;52.284;8.032;2022-11-15T06:46:09;8.00;;;7.20;;
7621;SDS011;3852;52.284;8.032;2022-11-15T06:48:35;9.13;;;8.13;;
7621;SDS011;3852;52.284;8.032;2022-11-15T06:51:02;9.37;;;8.07;;
7621;SDS011;3852;52.284;8.032;2022-11-15T06:53:29;9.00;;;7.90;;
7621;SDS011;3852;52.284;8.032;2022-11-15T06:56:05;9.87;;;8.13;;
7621;SDS011;3852;52.284;8.032;2022-11-15T06:58:32;10.27;;;8.47;;
7621;SDS011;3852;52.284;8.032;2022-11-15T07:01:05;9.97;;;8.27;;
7621;SDS011;3852;52.284;8.032;2022-11-15T07:03:35;9.33;;;8.00;;
7621;SDS011;3852;52.284;8.032;2022-11-15T07:06:06;11.53;;;7.87;;
7621;SDS011;3852;52.284;8.032;2022-11-15T07:08:33;11.57;;;9.13;;
7621;SDS011;3852;52.284;8.032;2022-11-15T07:11:01;14.13;;;8.93;;
7621;SDS011;3852;52.284;8.032;2022-11-15T07:13:32;10.37;;;8.30;;
7621;SDS011;3852;52.284;8.032;2022-11-15T07:16:06;9.10;;;7.67;;
7621;SDS011;3852;52.284;8.032;2022-11-15T07:18:34;10.07;;;8.43;;
7621;SDS011;3852;52.284;8.032;2022-11-15T07:21:05;10.43;;;7.83;;
7621;SDS011;3852;52.284;8.032;2022-11-15T07:23:35;8.70;;;7.80;;
7621;SDS011;3852;52.284;8.032;2022-11-15T07:26:03;8.53;;;7.63;;
7621;SDS011;3852;52.284;8.032;2022-11-15T07:28:29;9.40;;;8.10;;
7621;SDS011;3852;52.284;8.032;2022-11-15T07:30:55;9.80;;;8.13;;
7621;SDS011;3852;52.284;8.032;2022-11-15T07:33:21;10.80;;;8.00;;
7621;SDS011;3852;52.284;8.032;2022-11-15T07:35:47;10.83;;;8.70;;
7621;SDS011;3852;52.284;8.032;2022-11-15T07:38:16;9.13;;;8.17;;
7621;SDS011;3852;52.284;8.032;2022-11-15T07:40:45;9.73;;;8.17;;
7621;SDS011;3852;52.284;8.032;2022-11-15T07:43:12;10.17;;;8.33;;
7621;SDS011;3852;52.284;8.032;2022-11-15T07:45:42;10.23;;;7.10;;
7621;SDS011;3852;52.284;8.032;2022-11-15T07:48:09;12.53;;;8.53;;
7621;SDS011;3852;52.284;8.032;2022-11-15T07:50:35;12.77;;;7.83;;
7621;SDS011;3852;52.284;8.032;2022-11-15T07:53:02;12.10;;;8.10;;
7621;SDS011;3852;52.284;8.032;2022-11-15T07:55:28;9.33;;;8.00;;
7621;SDS011;3852;52.284;8.032;2022-11-15T07:58:04;13.27;;;10.17;;
7621;SDS011;3852;52.284;8.032;2022-11-15T08:00:33;9.63;;;8.23;;
7621;SDS011;3852;52.284;8.032;2022-11-15T08:03:09;10.93;;;8.13;;
7621;SDS011;3852;52.284;8.032;2022-11-15T08:05:38;10.37;;;8.23;;
7621;SDS011;3852;52.284;8.032;2022-11-15T08:08:06;8.20;;;7.40;;
7621;SDS011;3852;52.284;8.032;2022-11-15T08:10:34;10.37;;;7.70;;
7621;SDS011;3852;52.284;8.032;2022-11-15T08:13:02;8.67;;;7.60;;
7621;SDS011;3852;52.284;8.032;2022-11-15T08:15:33;8.37;;;7.57;;
7621;SDS011;3852;52.284;8.032;2022-11-15T08:18:03;9.30;;;7.60;;
7621;SDS011;3852;52.284;8.032;2022-11-15T08:20:33;8.77;;;7.13;;
7621;SDS011;3852;52.284;8.032;2022-11-15T08:23:00;8.40;;;7.10;;
7621;SDS011;3852;52.284;8.032;2022-11-15T08:25:29;9.07;;;7.03;;
7621;SDS011;3852;52.284;8.032;2022-11-15T08:27:57;8.10;;;7.03;;
7621;SDS011;3852;52.284;8.032;2022-11-15T08:30:29;7.57;;;6.70;;
7621;SDS011;3852;52.284;8.032;2022-11-15T08:32:56;8.20;;;7.20;;
7621;SDS011;3852;52.284;8.032;2022-11-15T08:35:24;7.87;;;6.70;;
7621;SDS011;3852;52.284;8.032;2022-11-15T08:37:51;8.70;;;6.90;;
7621;SDS011;3852;52.284;8.032;2022-11-15T08:40:18;7.20;;;6.50;;
7621;SDS011;3852;52.284;8.032;2022-11-15T08:42:47;13.73;;;6.70;;
7621;SDS011;3852;52.284;8.032;2022-11-15T08:45:13;7.10;;;5.67;;
7621;SDS011;3852;52.284;8.032;2022-11-15T08:47:39;8.20;;;6.20;;
7621;SDS011;3852;52.284;8.032;2022-11-15T08:50:05;8.90;;;5.97;;
7621;SDS011;3852;52.284;8.032;2022-11-15T08:52:32;9.57;;;6.47;;
7621;SDS011;3852;52.284;8.032;2022-11-15T08:54:58;7.53;;;5.87;;
7621;SDS011;3852;52.284;8.032;2022-11-15T08:57:24;6.50;;;5.77;;
7621;SDS011;3852;52.284;8.032;2022-11-15T08:59:50;6.90;;;6.20;;
7621;SDS011;3852;52.284;8.032;2022-11-15T09:02:15;6.33;;;5.70;;
7621;SDS011;3852;52.284;8.032;2022-11-15T09:04:42;7.73;;;5.60;;
7621;SDS011;3852;52.284;8.032;2022-11-15T09:07:09;6.13;;;5.50;;
7621;SDS011;3852;52.284;8.032;2022-11-15T09:09:36;6.53;;;5.90;;
7621;SDS011;3852;52.284;8.032;2022-11-15T09:12:03;7.77;;;5.77;;
7621;SDS011;3852;52.284;8.032;2022-11-15T09:14:30;6.80;;;5.53;;
7621;SDS011;3852;52.284;8.032;2022-11-15T09:16:56;7.33;;;5.70;;
7621;SDS011;3852;52.284;8.032;2022-11-15T09:19:23;6.20;;;5.60;;
7621;SDS011;3852;52.284;8.032;2022-11-15T09:21:49;6.77;;;5.93;;
7621;SDS011;3852;52.284;8.032;2022-11-15T09:24:15;7.20;;;5.77;;
7621;SDS011;3852;52.284;8.032;2022-11-15T09:26:42;5.90;;;5.40;;
7621;SDS011;3852;52.284;8.032;2022-11-15T09:29:08;6.27;;;5.40;;
7621;SDS011;3852;52.284;8.032;2022-11-15T09:31:34;5.57;;;5.03;;
7621;SDS011;3852;52.284;8.032;2022-11-15T09:34:00;7.77;;;5.37;;
7621;SDS011;3852;52.284;8.032;2022-11-15T09:36:26;5.80;;;5.20;;
7621;SDS011;3852;52.284;8.032;2022-11-15T09:38:52;6.07;;;5.47;;
7621;SDS011;3852;52.284;8.032;2022-11-15T09:44:07;4.67;;;4.27;;
7621;SDS011;3852;52.284;8.032;2022-11-15T09:47:10;7.30;;;4.13;;
7621;SDS011;3852;52.284;8.032;2022-11-15T09:49:53;4.27;;;3.90;;
7621;SDS011;3852;52.284;8.032;2022-11-15T09:52:25;4.70;;;4.17;;
7621;SDS011;3852;52.284;8.032;2022-11-15T09:54:51;7.07;;;4.43;;
7621;SDS011;3852;52.284;8.032;2022-11-15T10:00:33;4.30;;;3.90;;
7621;SDS011;3852;52.284;8.032;2022-11-15T10:05:48;4.97;;;3.70;;
7621;SDS011;3852;52.284;8.032;2022-11-15T10:08:24;5.80;;;3.53;;
7621;SDS011;3852;52.284;8.032;2022-11-15T10:11:19;3.63;;;3.23;;
7621;SDS011;3852;52.284;8.032;2022-11-15T10:13:49;4.03;;;2.83;;
7621;SDS011;3852;52.284;8.032;2022-11-15T10:21:29;2.80;;;2.60;;
7621;SDS011;3852;52.284;8.032;2022-11-15T10:24:11;3.33;;;2.10;;
7621;SDS011;3852;52.284;8.032;2022-11-15T10:26:38;2.30;;;2.10;;
7621;SDS011;3852;52.284;8.032;2022-11-15T10:29:11;2.87;;;1.93;;
7621;SDS011;3852;52.284;8.032;2022-11-15T10:31:47;4.33;;;1.97;;
7621;SDS011;3852;52.284;8.032;2022-11-15T10:34:15;2.73;;;1.83;;
7621;SDS011;3852;52.284;8.032;2022-11-15T10:36:45;2.83;;;2.10;;
7621;SDS011;3852;52.284;8.032;2022-11-15T10:39:22;1.43;;;1.33;;
7621;SDS011;3852;52.284;8.032;2022-11-15T10:41:49;1.70;;;1.60;;
7621;SDS011;3852;52.284;8.032;2022-11-15T10:46:42;3.90;;;1.80;;
7621;SDS011;3852;52.284;8.032;2022-11-15T10:49:26;1.80;;;1.67;;
7621;SDS011;3852;52.284;8.032;2022-11-15T10:52:01;1.87;;;1.50;;
7621;SDS011;3852;52.284;8.032;2022-11-15T10:57:19;1.60;;;1.50;;
7621;SDS011;3852;52.284;8.032;2022-11-15T10:59:53;1.73;;;1.63;;
7621;SDS011;3852;52.284;8.032;2022-11-15T11:02:32;1.73;;;1.53;;
7621;SDS011;3852;52.284;8.032;2022-11-15T11:05:01;1.90;;;1.80;;
7621;SDS011;3852;52.284;8.032;2022-11-15T11:08:23;1.80;;;1.70;;
7621;SDS011;3852;52.284;8.032;2022-11-15T11:10:55;1.77;;;1.67;;
7621;SDS011;3852;52.284;8.032;2022-11-15T11:13:24;1.70;;;1.30;;
7621;SDS011;3852;52.284;8.032;2022-11-15T11:18:56;1.90;;;1.70;;
7621;SDS011;3852;52.284;8.032;2022-11-15T11:25:02;2.03;;;1.60;;
7621;SDS011;3852;52.284;8.032;2022-11-15T11:28:02;3.00;;;1.70;;
7621;SDS011;3852;52.284;8.032;2022-11-15T11:33:55;1.33;;;1.23;;
7621;SDS011;3852;52.284;8.032;2022-11-15T11:37:00;1.80;;;1.20;;
7621;SDS011;3852;52.284;8.032;2022-11-15T11:48:42;1.30;;;1.30;;
7621;SDS011;3852;52.284;8.032;2022-11-15T11:51:17;1.37;;;1.23;;
7621;SDS011;3852;52.284;8.032;2022-11-15T11:53:58;1.30;;;1.20;;
7621;SDS011;3852;52.284;8.032;2022-11-15T11:56:35;1.43;;;1.30;;
7621;SDS011;3852;52.284;8.032;2022-11-15T11:59:27;1.63;;;1.53;;
7621;SDS011;3852;52.284;8.032;2022-11-15T12:02:14;1.57;;;1.40;;
7621;SDS011;3852;52.284;8.032;2022-11-15T12:04:57;1.50;;;1.40;;
7621;SDS011;3852;52.284;8.032;2022-11-15T12:07:35;1.40;;;1.30;;
7621;SDS011;3852;52.284;8.032;2022-11-15T12:13:02;1.37;;;1.30;;
7621;SDS011;3852;52.284;8.032;2022-11-15T12:15:52;1.00;;;1.00;;
7621;SDS011;3852;52.284;8.032;2022-11-15T12:18:40;1.57;;;1.30;;
7621;SDS011;3852;52.284;8.032;2022-11-15T12:21:15;1.97;;;1.77;;
7621;SDS011;3852;52.284;8.032;2022-11-15T12:24:02;3.23;;;1.70;;
7621;SDS011;3852;52.284;8.032;2022-11-15T12:26:42;1.87;;;1.40;;
7621;SDS011;3852;52.284;8.032;2022-11-15T12:32:32;4.03;;;1.10;;
7621;SDS011;3852;52.284;8.032;2022-11-15T12:35:02;2.13;;;1.07;;
7621;SDS011;3852;52.284;8.032;2022-11-15T12:42:41;2.17;;;1.57;;
7621;SDS011;3852;52.284;8.032;2022-11-15T12:45:40;1.33;;;1.23;;
7621;SDS011;3852;52.284;8.032;2022-11-15T12:50:53;1.30;;;1.20;;
7621;SDS011;3852;52.284;8.032;2022-11-15T12:56:35;2.37;;;1.93;;
7621;SDS011;3852;52.284;8.032;2022-11-15T13:01:56;1.67;;;1.47;;
7621;SDS011;3852;52.284;8.032;2022-11-15T13:06:49;2.13;;;1.37;;
7621;SDS011;3852;52.284;8.032;2022-11-15T13:14:54;1.63;;;1.50;;
7621;SDS011;3852;52.284;8.032;2022-11-15T13:17:53;2.13;;;1.30;;
7621;SDS011;3852;52.284;8.032;2022-11-15T13:20:27;2.10;;;1.37;;
7621;SDS011;3852;52.284;8.032;2022-11-15T13:23:12;1.80;;;1.40;;
7621;SDS011;3852;52.284;8.032;2022-11-15T13:34:03;1.77;;;1.50;;
7621;SDS011;3852;52.284;8.032;2022-11-15T13:36:53;1.73;;;1.43;;
7621;SDS011;3852;52.284;8.032;2022-11-15T13:39:31;1.97;;;1.70;;
7621;SDS011;3852;52.284;8.032;2022-11-15T13:41:58;1.83;;;1.73;;
7621;SDS011;3852;52.284;8.032;2022-11-15T13:44:26;1.70;;;1.60;;
7621;SDS011;3852;52.284;8.032;2022-11-15T13:47:00;2.40;;;1.47;;
7621;SDS011;3852;52.284;8.032;2022-11-15T13:49:48;3.53;;;1.83;;
7621;SDS011;3852;52.284;8.032;2022-11-15T13:52:14;1.67;;;1.57;;
7621;SDS011;3852;52.284;8.032;2022-11-15T13:54:46;3.33;;;1.40;;
7621;SDS011;3852;52.284;8.032;2022-11-15T13:57:37;1.67;;;1.23;;
7621;SDS011;3852;52.284;8.032;2022-11-15T14:03:07;2.30;;;1.40;;
7621;SDS011;3852;52.284;8.032;2022-11-15T14:05:44;4.53;;;2.07;;
7621;SDS011;3852;52.284;8.032;2022-11-15T14:08:41;2.27;;;1.80;;
7621;SDS011;3852;52.284;8.032;2022-11-15T14:11:23;2.70;;;2.30;;
7621;SDS011;3852;52.284;8.032;2022-11-15T14:14:02;3.20;;;2.00;;
7621;SDS011;3852;52.284;8.032;2022-11-15T14:16:38;1.70;;;1.60;;
7621;SDS011;3852;52.284;8.032;2022-11-15T14:19:33;3.07;;;1.90;;
7621;SDS011;3852;52.284;8.032;2022-11-15T14:25:05;3.00;;;1.90;;
7621;SDS011;3852;52.284;8.032;2022-11-15T14:30:47;2.20;;;1.50;;
7621;SDS011;3852;52.284;8.032;2022-11-15T14:33:27;2.03;;;1.63;;
7621;SDS011;3852;52.284;8.032;2022-11-15T14:36:02;6.77;;;2.43;;
7621;SDS011;3852;52.284;8.032;2022-11-15T14:38:36;3.50;;;2.60;;
7621;SDS011;3852;52.284;8.032;2022-11-15T14:41:02;3.63;;;2.37;;
7621;SDS011;3852;52.284;8.032;2022-11-15T14:43:28;2.20;;;2.00;;
7621;SDS011;3852;52.284;8.032;2022-11-15T14:45:54;4.03;;;1.90;;
7621;SDS011;3852;52.284;8.032;2022-11-15T14:48:20;2.17;;;1.90;;
7621;SDS011;3852;52.284;8.032;2022-11-15T14:50:47;2.23;;;2.03;;
7621;SDS011;3852;52.284;8.032;2022-11-15T14:53:14;2.87;;;1.90;;
7621;SDS011;3852;52.284;8.032;2022-11-15T14:55:43;2.33;;;1.80;;
7621;SDS011;3852;52.284;8.032;2022-11-15T14:58:09;2.27;;;2.00;;
7621;SDS011;3852;52.284;8.032;2022-11-15T15:00:36;2.17;;;1.97;;
7621;SDS011;3852;52.284;8.032;2022-11-15T15:03:04;2.40;;;2.20;;
7621;SDS011;3852;52.284;8.032;2022-11-15T15:05:35;2.07;;;1.97;;
7621;SDS011;3852;52.284;8.032;2022-11-15T15:08:07;2.00;;;1.90;;
7621;SDS011;3852;52.284;8.032;2022-11-15T15:10:35;3.07;;;2.00;;
7621;SDS011;3852;52.284;8.032;2022-11-15T15:13:20;2.17;;;2.00;;
7621;SDS011;3852;52.284;8.032;2022-11-15T15:15:48;2.40;;;2.30;;
7621;SDS011;3852;52.284;8.032;2022-11-15T15:18:16;1.80;;;1.70;;
7621;SDS011;3852;52.284;8.032;2022-11-15T15:20:47;2.57;;;2.33;;
7621;SDS011;3852;52.284;8.032;2022-11-15T15:23:22;2.83;;;2.07;;
7621;SDS011;3852;52.284;8.032;2022-11-15T15:25:50;4.67;;;2.10;;
7621;SDS011;3852;52.284;8.032;2022-11-15T15:28:17;3.67;;;2.10;;
7621;SDS011;3852;52.284;8.032;2022-11-15T15:30:43;3.27;;;2.03;;
7621;SDS011;3852;52.284;8.032;2022-11-15T15:33:09;2.17;;;2.07;;
7621;SDS011;3852;52.284;8.032;2022-11-15T15:35:35;2.57;;;2.00;;
7621;SDS011;3852;52.284;8.032;2022-11-15T15:38:01;2.03;;;1.93;;
7621;SDS011;3852;52.284;8.032;2022-11-15T15:40:28;2.37;;;2.17;;
7621;SDS011;3852;52.284;8.032;2022-11-15T15:42:56;2.77;;;2.20;;
7621;SDS011;3852;52.284;8.032;2022-11-15T15:45:22;3.00;;;2.27;;
7621;SDS011;3852;52.284;8.032;2022-11-15T15:47:50;3.10;;;2.30;;
7621;SDS011;3852;52.284;8.032;2022-11-15T15:50:35;2.30;;;2.07;;
7621;SDS011;3852;52.284;8.032;2022-11-15T15:53:01;2.27;;;2.07;;
7621;SDS011;3852;52.284;8.032;2022-11-15T15:55:29;3.00;;;2.30;;
7621;SDS011;3852;52.284;8.032;2022-11-15T15:57:55;2.60;;;2.20;;
7621;SDS011;3852;52.284;8.032;2022-11-15T16:00:22;3.30;;;2.47;;
7621;SDS011;3852;52.284;8.032;2022-11-15T16:02:50;4.67;;;2.60;;
7621;SDS011;3852;52.284;8.032;2022-11-15T16:05:17;3.17;;;2.47;;
7621;SDS011;3852;52.284;8.032;2022-11-15T16:07:43;2.80;;;2.60;;
7621;SDS011;3852;52.284;8.032;2022-11-15T16:10:28;2.90;;;2.67;;
7621;SDS011;3852;52.284;8.032;2022-11-15T16:12:56;3.83;;;2.67;;
7621;SDS011;3852;52.284;8.032;2022-11-15T16:15:25;3.90;;;2.60;;
7621;SDS011;3852;52.284;8.032;2022-11-15T16:17:55;2.90;;;2.57;;
7621;SDS011;3852;52.284;8.032;2022-11-15T16:23:08;3.77;;;2.90;;
7621;SDS011;3852;52.284;8.032;2022-11-15T16:25:39;9.70;;;5.50;;
7621;SDS011;3852;52.284;8.032;2022-11-15T16:31:03;3.53;;;3.23;;
7621;SDS011;3852;52.284;8.032;2022-11-15T16:33:35;4.23;;;3.67;;
7621;SDS011;3852;52.284;8.032;2022-11-15T16:36:02;4.07;;;3.33;;
7621;SDS011;3852;52.284;8.032;2022-11-15T16:38:30;5.03;;;3.20;;
7621;SDS011;3852;52.284;8.032;2022-11-15T16:40:56;3.97;;;3.47;;
7621;SDS011;3852;52.284;8.032;2022-11-15T16:43:22;3.73;;;2.90;;
7621;SDS011;3852;52.284;8.032;2022-11-15T16:45:48;3.53;;;3.10;;
7621;SDS011;3852;52.284;8.032;2022-11-15T16:48:25;2.80;;;2.60;;
7621;SDS011;3852;52.284;8.032;2022-11-15T16:50:56;2.97;;;2.70;;
7621;SDS011;3852;52.284;8.032;2022-11-15T16:53:23;3.37;;;3.07;;
7621;SDS011;3852;52.284;8.032;2022-11-15T16:55:50;3.40;;;3.10;;
7621;SDS011;3852;52.284;8.032;2022-11-15T16:58:16;4.80;;;3.30;;
7621;SDS011;3852;52.284;8.032;2022-11-15T17:00:42;3.60;;;3.07;;
7621;SDS011;3852;52.284;8.032;2022-11-15T17:03:08;4.67;;;3.67;;
7621;SDS011;3852;52.284;8.032;2022-11-15T17:05:34;4.53;;;3.40;;
7621;SDS011;3852;52.284;8.032;2022-11-15T17:08:00;4.20;;;3.63;;
7621;SDS011;3852;52.284;8.032;2022-11-15T17:10:26;3.80;;;3.43;;
7621;SDS011;3852;52.284;8.032;2022-11-15T17:12:53;4.63;;;3.60;;
7621;SDS011;3852;52.284;8.032;2022-11-15T17:15:20;4.43;;;3.90;;
7621;SDS011;3852;52.284;8.032;2022-11-15T17:17:51;5.43;;;4.20;;
7621;SDS011;3852;52.284;8.032;2022-11-15T17:20:19;4.40;;;3.77;;
7621;SDS011;3852;52.284;8.032;2022-11-15T17:22:47;4.17;;;3.77;;
7621;SDS011;3852;52.284;8.032;2022-11-15T17:25:13;4.30;;;3.73;;
7621;SDS011;3852;52.284;8.032;2022-11-15T17:27:39;4.70;;;4.20;;
7621;SDS011;3852;52.284;8.032;2022-11-15T17:30:05;4.20;;;3.80;;
7621;SDS011;3852;52.284;8.032;2022-11-15T17:32:34;4.97;;;3.77;;
7621;SDS011;3852;52.284;8.032;2022-11-15T17:35:01;3.97;;;3.57;;